createdAt,value
2023-11-30T00:01:16.644Z,5.37
2023-11-30T00:03:44.315Z,5.37
2023-11-30T00:06:11.877Z,5.32
2023-11-30T00:08:38.853Z,5.38
2023-11-30T00:11:08.903Z,5.26
2023-11-30T00:13:35.970Z,5.17
2023-11-30T00:16:02.965Z,5.24
2023-11-30T00:18:30.639Z,5.10
2023-11-30T00:20:57.704Z,5.12
2023-11-30T00:23:24.703Z,5.25
2023-11-30T00:25:51.687Z,5.11
2023-11-30T00:28:18.757Z,4.95
2023-11-30T00:30:46.009Z,5.07
2023-11-30T00:33:13.086Z,5.01
2023-11-30T00:35:40.067Z,5.06
2023-11-30T00:38:07.071Z,4.93
2023-11-30T00:40:34.153Z,4.98
2023-11-30T00:43:01.239Z,5.20
2023-11-30T00:45:28.254Z,5.08
2023-11-30T00:47:55.373Z,5.04
2023-11-30T00:50:22.565Z,5.05
2023-11-30T00:52:49.755Z,5.03
2023-11-30T00:55:16.930Z,5.04
2023-11-30T00:57:43.898Z,4.85
2023-11-30T01:00:11.873Z,4.89
2023-11-30T01:02:41.503Z,4.97
2023-11-30T01:05:09.519Z,4.86
2023-11-30T01:07:39.718Z,4.71
2023-11-30T01:10:07.929Z,4.78
2023-11-30T01:12:35.012Z,4.87
2023-11-30T01:15:02.408Z,4.79
2023-11-30T01:17:29.596Z,4.79
2023-11-30T01:19:56.664Z,4.90
2023-11-30T01:22:23.710Z,4.85
2023-11-30T01:24:50.808Z,4.90
2023-11-30T01:27:17.940Z,4.98
2023-11-30T01:29:45.186Z,5.07
2023-11-30T01:32:12.231Z,4.84
2023-11-30T01:34:39.586Z,4.76
2023-11-30T01:37:07.189Z,4.70
2023-11-30T01:39:34.157Z,4.75
2023-11-30T01:42:03.817Z,4.66
2023-11-30T01:44:33.180Z,4.71
2023-11-30T01:47:01.000Z,4.72
2023-11-30T01:49:28.225Z,4.66
2023-11-30T01:51:55.383Z,4.71
2023-11-30T01:54:22.496Z,4.63
2023-11-30T01:56:50.119Z,4.60
2023-11-30T01:59:17.885Z,4.53
2023-11-30T02:01:45.321Z,4.38
2023-11-30T02:04:17.011Z,4.28
2023-11-30T02:06:47.938Z,4.20
2023-11-30T02:09:15.305Z,4.16
2023-11-30T02:11:42.885Z,4.19
2023-11-30T02:14:09.881Z,4.26
2023-11-30T02:16:37.349Z,4.39
2023-11-30T02:19:04.485Z,4.19
2023-11-30T02:21:31.759Z,4.18
2023-11-30T02:23:58.773Z,4.15
2023-11-30T02:26:25.788Z,3.96
2023-11-30T02:28:53.007Z,3.81
2023-11-30T02:31:20.111Z,3.78
2023-11-30T02:33:47.222Z,3.75
2023-11-30T02:36:14.517Z,3.73
2023-11-30T02:38:41.583Z,3.84
2023-11-30T02:41:09.215Z,3.91
2023-11-30T02:43:36.213Z,3.75
2023-11-30T02:46:03.363Z,3.80
2023-11-30T02:48:30.455Z,3.86
2023-11-30T02:50:57.924Z,3.66
2023-11-30T02:53:25.010Z,3.62
2023-11-30T02:55:52.117Z,3.63
2023-11-30T02:58:19.225Z,3.67
2023-11-30T03:00:47.538Z,3.55
2023-11-30T03:03:14.803Z,3.42
2023-11-30T03:05:41.871Z,3.45
2023-11-30T03:08:08.890Z,3.45
2023-11-30T03:10:36.028Z,3.43
2023-11-30T03:13:03.105Z,3.35
2023-11-30T03:15:32.065Z,3.37
2023-11-30T03:17:59.190Z,3.24
2023-11-30T03:20:26.395Z,3.26
2023-11-30T03:22:53.447Z,3.26
2023-11-30T03:25:20.544Z,3.33
2023-11-30T03:27:47.582Z,3.19
2023-11-30T03:30:14.793Z,3.25
2023-11-30T03:32:41.969Z,3.21
2023-11-30T03:35:09.348Z,3.13
2023-11-30T03:37:41.446Z,2.96
2023-11-30T03:40:09.318Z,3.02
2023-11-30T03:42:36.489Z,3.14
2023-11-30T03:45:03.800Z,3.23
2023-11-30T03:47:30.892Z,3.25
2023-11-30T03:49:57.925Z,3.30
2023-11-30T03:52:25.094Z,3.31
2023-11-30T03:54:53.004Z,3.29
2023-11-30T03:57:20.142Z,3.30
2023-11-30T03:59:47.246Z,3.31
2023-11-30T04:02:14.296Z,3.29
2023-11-30T04:04:42.878Z,3.29
2023-11-30T04:07:09.988Z,3.32
2023-11-30T04:09:38.985Z,3.25
2023-11-30T04:12:06.575Z,3.30
2023-11-30T04:14:33.644Z,3.20
2023-11-30T04:17:04.290Z,3.18
2023-11-30T04:19:31.956Z,3.23
2023-11-30T04:21:59.013Z,3.29
2023-11-30T04:24:26.178Z,3.38
2023-11-30T04:26:54.816Z,3.32
2023-11-30T04:29:21.935Z,3.24
2023-11-30T04:31:51.496Z,3.19
2023-11-30T04:34:19.881Z,3.10
2023-11-30T04:36:47.641Z,3.18
2023-11-30T04:39:14.684Z,3.24
2023-11-30T04:41:42.233Z,3.22
2023-11-30T04:44:09.343Z,3.24
2023-11-30T04:46:36.808Z,3.19
2023-11-30T04:49:06.264Z,3.14
2023-11-30T04:51:34.012Z,3.08
2023-11-30T04:54:01.072Z,3.08
2023-11-30T04:56:28.343Z,3.06
2023-11-30T04:58:55.394Z,3.04
2023-11-30T05:01:22.509Z,3.10
2023-11-30T05:03:49.769Z,3.19
2023-11-30T05:06:17.031Z,3.07
2023-11-30T05:08:44.024Z,3.07
2023-11-30T05:11:11.111Z,2.95
2023-11-30T05:13:38.235Z,2.87
2023-11-30T05:16:06.078Z,2.92
2023-11-30T05:18:33.207Z,2.86
2023-11-30T05:21:00.868Z,2.89
2023-11-30T05:23:27.848Z,2.81
2023-11-30T05:25:54.941Z,2.80
2023-11-30T05:28:23.107Z,2.81
2023-11-30T05:30:50.585Z,2.87
2023-11-30T05:33:18.033Z,2.74
2023-11-30T05:35:45.520Z,2.75
2023-11-30T05:38:15.482Z,2.89
2023-11-30T05:40:42.713Z,3.07
2023-11-30T05:43:09.921Z,2.87
2023-11-30T05:45:37.061Z,2.80
2023-11-30T05:48:04.863Z,2.71
2023-11-30T05:50:31.899Z,2.69
2023-11-30T05:52:58.862Z,2.73
2023-11-30T05:55:26.862Z,2.89
2023-11-30T05:57:53.987Z,2.92
2023-11-30T06:00:23.264Z,2.98
2023-11-30T06:02:50.365Z,3.12
2023-11-30T06:05:18.479Z,3.16
2023-11-30T06:07:46.157Z,3.15
2023-11-30T06:10:15.213Z,3.18
2023-11-30T06:12:42.599Z,3.24
2023-11-30T06:15:11.068Z,3.36
2023-11-30T06:17:38.265Z,3.27
2023-11-30T06:20:08.795Z,3.25
2023-11-30T06:22:37.641Z,3.42
2023-11-30T06:25:06.729Z,3.54
2023-11-30T06:27:33.926Z,3.63
2023-11-30T06:30:01.129Z,3.75
2023-11-30T06:32:28.174Z,4.03
2023-11-30T06:34:55.192Z,4.03
2023-11-30T06:37:22.325Z,4.07
2023-11-30T06:39:49.447Z,4.25
2023-11-30T06:42:16.545Z,4.35
2023-11-30T06:44:46.550Z,4.30
2023-11-30T06:47:13.716Z,4.42
2023-11-30T06:49:40.774Z,4.51
2023-11-30T06:52:07.888Z,4.77
2023-11-30T06:54:34.906Z,4.92
2023-11-30T06:57:02.183Z,5.04
2023-11-30T06:59:31.309Z,5.04
2023-11-30T07:01:59.737Z,5.04
2023-11-30T07:04:29.492Z,5.04
2023-11-30T07:06:57.263Z,5.19
2023-11-30T07:09:24.287Z,5.26
2023-11-30T07:11:51.640Z,5.27
2023-11-30T07:14:18.674Z,5.41
2023-11-30T07:16:45.732Z,5.62
2023-11-30T07:19:14.658Z,5.95
2023-11-30T07:21:41.786Z,6.31
2023-11-30T07:24:11.529Z,6.50
2023-11-30T07:26:40.328Z,6.55
2023-11-30T07:29:07.452Z,6.75
2023-11-30T07:31:35.795Z,6.97
2023-11-30T07:34:04.244Z,7.18
2023-11-30T07:36:31.479Z,7.50
2023-11-30T07:38:58.704Z,7.82
2023-11-30T07:41:25.780Z,8.03
2023-11-30T07:43:52.895Z,8.19
2023-11-30T07:46:20.775Z,8.46
2023-11-30T07:48:48.115Z,8.61
2023-11-30T07:51:15.297Z,8.71
2023-11-30T07:53:42.434Z,8.86
2023-11-30T07:56:11.426Z,8.99
2023-11-30T07:58:38.616Z,9.12
2023-11-30T08:01:06.625Z,9.32
2023-11-30T08:03:34.379Z,9.60
2023-11-30T08:06:02.196Z,9.77
2023-11-30T08:08:29.353Z,9.98
2023-11-30T08:10:57.147Z,10.15
2023-11-30T08:13:25.490Z,10.36
2023-11-30T08:15:52.641Z,10.32
2023-11-30T08:18:25.516Z,10.19
2023-11-30T08:20:55.553Z,10.43
2023-11-30T08:23:23.340Z,10.18
2023-11-30T08:25:50.968Z,9.98
2023-11-30T08:28:18.206Z,9.98
2023-11-30T08:30:45.498Z,9.96
2023-11-30T08:33:13.037Z,9.98
2023-11-30T08:35:41.248Z,9.92
2023-11-30T08:38:10.453Z,10.21
2023-11-30T08:40:37.611Z,10.50
2023-11-30T08:43:04.774Z,10.94
2023-11-30T08:45:33.534Z,11.38
2023-11-30T08:48:00.768Z,11.63
2023-11-30T08:50:28.122Z,11.88
2023-11-30T08:52:55.164Z,12.17
2023-11-30T08:55:22.324Z,12.32
2023-11-30T08:57:49.965Z,12.52
2023-11-30T09:00:20.570Z,12.50
2023-11-30T09:02:49.643Z,12.03
2023-11-30T09:05:16.954Z,11.65
2023-11-30T09:07:44.067Z,11.62
2023-11-30T09:10:12.120Z,11.68
2023-11-30T09:12:39.440Z,11.76
2023-11-30T09:15:10.921Z,11.86
2023-11-30T09:17:38.099Z,11.61
2023-11-30T09:20:09.322Z,11.25
2023-11-30T09:22:37.072Z,11.28
2023-11-30T09:25:05.015Z,10.86
2023-11-30T09:27:37.310Z,10.92
2023-11-30T09:30:14.792Z,10.86
2023-11-30T09:32:45.156Z,10.76
2023-11-30T09:35:13.043Z,10.77
2023-11-30T09:37:40.478Z,10.60
2023-11-30T09:40:14.512Z,10.51
2023-11-30T09:42:42.120Z,10.42
2023-11-30T09:45:10.408Z,10.22
2023-11-30T09:47:38.134Z,10.27
2023-11-30T09:50:07.261Z,10.37
2023-11-30T09:52:36.085Z,10.64
2023-11-30T09:55:12.679Z,10.97
2023-11-30T09:57:42.232Z,11.20
2023-11-30T10:00:12.881Z,11.13
2023-11-30T10:02:40.143Z,11.17
2023-11-30T10:05:10.692Z,10.98
2023-11-30T10:07:39.675Z,10.93
2023-11-30T10:10:10.289Z,11.51
2023-11-30T10:12:37.475Z,11.68
2023-11-30T10:15:06.210Z,11.58
2023-11-30T10:17:33.549Z,11.74
2023-11-30T10:20:00.866Z,11.72
2023-11-30T10:22:28.074Z,11.99
2023-11-30T10:24:55.128Z,11.95
2023-11-30T10:27:25.579Z,12.23
2023-11-30T10:30:01.562Z,12.50
2023-11-30T10:32:28.776Z,12.66
2023-11-30T10:35:01.153Z,12.68
2023-11-30T10:37:34.410Z,13.02
2023-11-30T10:40:09.721Z,12.63
2023-11-30T10:42:37.575Z,12.97
2023-11-30T10:45:08.016Z,12.76
2023-11-30T10:47:40.959Z,12.59
2023-11-30T10:50:13.682Z,12.64
2023-11-30T10:52:44.768Z,12.91
2023-11-30T10:55:15.497Z,13.18
2023-11-30T10:57:45.304Z,13.59
2023-11-30T11:00:23.764Z,13.96
2023-11-30T11:02:52.345Z,14.28
2023-11-30T11:05:22.037Z,14.55
2023-11-30T11:07:52.670Z,14.13
2023-11-30T11:10:25.980Z,14.05
2023-11-30T11:12:54.020Z,13.92
2023-11-30T11:15:31.506Z,13.70
2023-11-30T11:18:07.318Z,13.68
2023-11-30T11:20:37.989Z,13.84
2023-11-30T11:23:05.152Z,14.13
2023-11-30T11:25:44.850Z,14.51
2023-11-30T11:28:12.941Z,14.34
2023-11-30T11:30:49.245Z,14.35
2023-11-30T11:33:19.152Z,14.59
2023-11-30T11:35:47.577Z,14.91
2023-11-30T11:38:15.171Z,15.22
2023-11-30T11:41:02.726Z,15.31
2023-11-30T11:43:30.007Z,15.40
2023-11-30T11:45:57.696Z,14.72
2023-11-30T11:48:25.116Z,14.65
2023-11-30T11:51:00.438Z,14.78
2023-11-30T11:53:28.026Z,14.68
2023-11-30T11:56:04.330Z,14.80
2023-11-30T11:58:31.772Z,15.36
2023-11-30T12:00:59.646Z,16.36
2023-11-30T12:03:33.329Z,17.30
2023-11-30T12:06:00.644Z,18.02
2023-11-30T12:08:31.929Z,18.58
2023-11-30T12:11:01.144Z,19.31
2023-11-30T12:13:30.312Z,19.34
2023-11-30T12:15:58.169Z,19.70
2023-11-30T12:18:28.599Z,19.38
2023-11-30T12:20:56.015Z,19.49
2023-11-30T12:23:24.790Z,19.58
2023-11-30T12:25:56.442Z,19.56
2023-11-30T12:28:25.281Z,19.62
2023-11-30T12:30:53.362Z,19.92
2023-11-30T12:33:22.929Z,20.09
2023-11-30T12:35:53.796Z,20.41
2023-11-30T12:38:21.514Z,20.50
2023-11-30T12:40:49.358Z,20.17
2023-11-30T12:43:18.663Z,20.30
2023-11-30T12:45:47.215Z,20.57
2023-11-30T12:48:16.319Z,20.65
2023-11-30T12:50:48.355Z,20.37
2023-11-30T12:53:18.918Z,20.48
2023-11-30T12:55:46.700Z,20.77
2023-11-30T12:58:14.187Z,20.83
2023-11-30T13:00:42.936Z,20.70
2023-11-30T13:03:10.619Z,20.59
2023-11-30T13:05:38.318Z,20.56
2023-11-30T13:08:06.600Z,20.18
2023-11-30T13:10:34.258Z,19.85
2023-11-30T13:13:02.811Z,19.65
2023-11-30T13:15:30.191Z,19.44
2023-11-30T13:17:57.490Z,19.30
2023-11-30T13:20:25.879Z,19.17
2023-11-30T13:22:53.519Z,19.13
2023-11-30T13:25:22.259Z,19.07
2023-11-30T13:27:51.141Z,18.93
2023-11-30T13:30:19.733Z,18.86
2023-11-30T13:32:47.924Z,18.82
2023-11-30T13:35:15.949Z,18.65
2023-11-30T13:37:43.417Z,18.39
2023-11-30T13:40:12.236Z,18.09
2023-11-30T13:42:42.280Z,17.65
2023-11-30T13:45:10.736Z,17.22
2023-11-30T13:47:49.077Z,16.68
2023-11-30T13:50:26.267Z,16.15
2023-11-30T13:53:03.524Z,15.73
2023-11-30T13:55:31.386Z,15.36
2023-11-30T13:58:00.527Z,15.32
2023-11-30T14:00:31.041Z,14.84
2023-11-30T14:03:01.325Z,14.43
2023-11-30T14:05:31.297Z,14.18
2023-11-30T14:08:01.902Z,13.80
2023-11-30T14:10:31.543Z,13.71
2023-11-30T14:15:42.183Z,13.24
2023-11-30T14:18:12.290Z,13.20
2023-11-30T14:20:42.143Z,13.16
2023-11-30T14:23:10.235Z,12.84
2023-11-30T14:25:41.574Z,12.62
2023-11-30T14:28:13.528Z,12.44
2023-11-30T14:30:42.040Z,12.35
2023-11-30T14:33:13.189Z,12.19
2023-11-30T14:35:41.869Z,12.00
2023-11-30T14:38:09.377Z,11.85
2023-11-30T14:40:37.161Z,11.72
2023-11-30T14:43:04.388Z,11.68
2023-11-30T14:45:32.588Z,11.58
2023-11-30T14:48:03.065Z,11.48
2023-11-30T14:50:39.024Z,11.37
2023-11-30T14:53:07.594Z,11.26
2023-11-30T14:55:39.618Z,11.21
2023-11-30T14:58:08.429Z,11.13
2023-11-30T15:00:39.643Z,10.95
2023-11-30T15:03:10.791Z,10.87
2023-11-30T15:05:40.169Z,10.76
2023-11-30T15:08:08.236Z,10.67
2023-11-30T15:10:38.735Z,10.54
2023-11-30T15:13:05.995Z,10.34
2023-11-30T15:15:34.101Z,10.38
2023-11-30T15:18:01.854Z,10.48
2023-11-30T15:20:31.096Z,10.30
2023-11-30T15:22:58.521Z,10.32
2023-11-30T15:25:27.339Z,10.32
2023-11-30T15:27:54.684Z,10.18
2023-11-30T15:30:22.285Z,10.03
2023-11-30T15:32:49.528Z,9.87
2023-11-30T15:35:17.043Z,9.83
2023-11-30T15:37:51.220Z,9.66
2023-11-30T15:40:20.829Z,9.61
2023-11-30T15:42:51.936Z,9.74
2023-11-30T15:45:23.512Z,9.57
2023-11-30T15:47:52.621Z,9.58
2023-11-30T15:50:23.329Z,9.54
2023-11-30T15:52:52.615Z,9.57
2023-11-30T15:55:20.489Z,9.34
2023-11-30T15:57:48.104Z,9.14
2023-11-30T16:00:16.223Z,9.11
2023-11-30T16:02:46.766Z,9.09
2023-11-30T16:05:15.146Z,9.01
2023-11-30T16:07:43.176Z,8.94
2023-11-30T16:10:11.388Z,8.92
2023-11-30T16:12:39.297Z,8.90
2023-11-30T16:15:10.937Z,8.89
2023-11-30T16:17:39.736Z,8.91
2023-11-30T16:20:13.274Z,8.85
2023-11-30T16:22:46.789Z,8.79
2023-11-30T16:25:16.526Z,8.67
2023-11-30T16:27:44.225Z,8.55
2023-11-30T16:30:17.604Z,8.46
2023-11-30T16:32:45.922Z,8.36
2023-11-30T16:35:14.817Z,8.32
2023-11-30T16:37:42.251Z,8.38
2023-11-30T16:40:12.369Z,8.51
2023-11-30T16:42:43.541Z,8.37
2023-11-30T16:45:11.119Z,8.45
2023-11-30T16:47:39.456Z,8.45
2023-11-30T16:50:14.916Z,8.30
2023-11-30T16:52:49.315Z,8.27
2023-11-30T16:55:20.834Z,8.30
2023-11-30T16:57:49.759Z,8.23
2023-11-30T17:00:20.055Z,8.23
2023-11-30T17:02:51.439Z,8.25
2023-11-30T17:05:19.998Z,8.19
2023-11-30T17:07:47.333Z,8.11
2023-11-30T17:10:17.573Z,8.17
2023-11-30T17:12:47.992Z,8.15
2023-11-30T17:15:19.452Z,8.03
2023-11-30T17:17:50.578Z,7.99
2023-11-30T17:20:21.148Z,8.03
2023-11-30T17:22:50.931Z,8.06
2023-11-30T17:25:19.986Z,8.09
2023-11-30T17:27:48.673Z,7.98
2023-11-30T17:30:17.991Z,7.82
2023-11-30T17:32:46.372Z,7.82
2023-11-30T17:35:15.536Z,7.85
2023-11-30T17:37:46.353Z,7.83
2023-11-30T17:40:14.189Z,7.71
2023-11-30T17:42:42.202Z,7.67
2023-11-30T17:45:11.374Z,7.81
2023-11-30T17:47:41.480Z,7.77
2023-11-30T17:50:14.123Z,7.85
2023-11-30T17:52:42.181Z,7.72
2023-11-30T17:55:10.094Z,7.76
2023-11-30T17:57:39.273Z,7.90
2023-11-30T18:00:07.976Z,7.88
2023-11-30T18:03:04.650Z,7.98
2023-11-30T18:05:33.808Z,7.80
2023-11-30T18:08:02.194Z,7.70
2023-11-30T18:10:35.341Z,7.68
2023-11-30T18:13:05.576Z,7.74
2023-11-30T18:15:35.592Z,7.73
2023-11-30T18:18:03.395Z,7.49
2023-11-30T18:20:34.358Z,7.38
2023-11-30T18:23:03.669Z,7.49
2023-11-30T18:25:32.624Z,7.53
2023-11-30T18:28:00.623Z,7.50
2023-11-30T18:30:31.662Z,7.42
2023-11-30T18:33:03.483Z,7.33
2023-11-30T18:35:34.730Z,7.36
2023-11-30T18:38:05.301Z,7.33
2023-11-30T18:40:35.583Z,7.33
2023-11-30T18:43:25.402Z,7.18
2023-11-30T18:45:59.143Z,7.03
2023-11-30T18:48:30.580Z,6.96
2023-11-30T18:51:01.210Z,6.86
2023-11-30T18:53:37.352Z,6.94
2023-11-30T18:56:06.049Z,6.84
2023-11-30T18:58:35.189Z,6.82
2023-11-30T19:01:04.555Z,6.87
2023-11-30T19:03:34.270Z,6.94
2023-11-30T19:06:03.835Z,6.85
2023-11-30T19:08:32.921Z,6.79
2023-11-30T19:11:03.012Z,6.70
2023-11-30T19:13:36.372Z,6.65
2023-11-30T19:16:05.996Z,6.71
2023-11-30T19:18:35.132Z,6.72
2023-11-30T19:21:06.482Z,6.53
2023-11-30T19:23:37.469Z,6.46
2023-11-30T19:26:13.826Z,6.41
2023-11-30T19:28:43.079Z,6.52
2023-11-30T19:31:11.780Z,6.52
2023-11-30T19:33:45.616Z,6.40
2023-11-30T19:36:17.881Z,6.43
2023-11-30T19:38:50.966Z,6.60
2023-11-30T19:41:24.389Z,6.49
2023-11-30T19:43:58.291Z,6.42
2023-11-30T19:46:30.755Z,6.54
2023-11-30T19:49:00.948Z,6.37
2023-11-30T19:51:34.060Z,6.44
2023-11-30T19:54:09.199Z,6.48
2023-11-30T19:56:46.198Z,6.37
2023-11-30T19:59:15.316Z,6.41
2023-11-30T20:01:45.026Z,6.37
2023-11-30T20:04:13.757Z,6.27
2023-11-30T20:06:45.045Z,6.17
2023-11-30T20:09:38.354Z,6.10
2023-11-30T20:12:13.060Z,6.06
2023-11-30T20:14:44.917Z,6.10
2023-11-30T20:17:13.597Z,6.14
2023-11-30T20:19:44.134Z,6.05
2023-11-30T20:22:12.962Z,5.93
2023-11-30T20:24:40.687Z,5.73
2023-11-30T20:27:09.401Z,5.72
2023-11-30T20:29:36.880Z,5.69
2023-11-30T20:32:04.935Z,5.72
2023-11-30T20:34:40.566Z,5.54
2023-11-30T20:37:09.159Z,5.47
2023-11-30T20:39:37.186Z,5.52
2023-11-30T20:42:08.739Z,5.48
2023-11-30T20:44:37.365Z,5.45
2023-11-30T20:47:05.918Z,5.20
2023-11-30T20:49:33.998Z,5.17
2023-11-30T20:52:04.325Z,5.83
2023-11-30T20:54:35.616Z,5.79
2023-11-30T20:57:03.511Z,5.27
2023-11-30T20:59:34.746Z,5.09
2023-11-30T21:02:02.548Z,5.15
2023-11-30T21:04:30.476Z,4.92
2023-11-30T21:07:03.969Z,4.75
2023-11-30T21:09:33.358Z,4.80
2023-11-30T21:12:04.187Z,4.62
2023-11-30T21:14:33.870Z,4.67
2023-11-30T21:17:06.997Z,4.83
2023-11-30T21:19:54.178Z,4.66
2023-11-30T21:22:21.468Z,4.74
2023-11-30T21:24:48.781Z,4.69
2023-11-30T21:27:20.441Z,4.75
2023-11-30T21:29:50.994Z,4.78
2023-11-30T21:32:18.384Z,4.72
2023-11-30T21:34:51.242Z,4.76
2023-11-30T21:37:18.710Z,4.66
2023-11-30T21:39:47.245Z,4.64
2023-11-30T21:42:15.724Z,4.60
2023-11-30T21:44:47.108Z,4.83
2023-11-30T21:47:14.418Z,4.73
2023-11-30T21:49:49.366Z,4.64
2023-11-30T21:52:20.936Z,4.47
2023-11-30T21:54:48.943Z,4.60
2023-11-30T21:57:19.034Z,4.59
2023-11-30T21:59:46.367Z,4.61
2023-11-30T22:02:13.653Z,4.56
2023-11-30T22:04:41.880Z,4.46
2023-11-30T22:07:09.448Z,4.50
2023-11-30T22:09:39.113Z,4.49
2023-11-30T22:12:08.145Z,4.39
2023-11-30T22:14:38.107Z,4.53
2023-11-30T22:17:05.833Z,4.48
2023-11-30T22:19:33.474Z,4.68
2023-11-30T22:22:01.692Z,4.58
2023-11-30T22:24:29.794Z,4.49
2023-11-30T22:26:57.507Z,4.32
2023-11-30T22:29:24.710Z,4.32
2023-11-30T22:31:54.307Z,4.15
2023-11-30T22:34:21.745Z,4.09
2023-11-30T22:36:49.401Z,4.32
2023-11-30T22:39:18.070Z,4.45
2023-11-30T22:41:46.454Z,4.36
2023-11-30T22:44:18.577Z,4.27
2023-11-30T22:46:47.062Z,4.17
2023-11-30T22:49:17.733Z,4.13
2023-11-30T22:51:54.195Z,4.02
2023-11-30T22:54:23.916Z,4.07
2023-11-30T22:56:57.972Z,4.15
2023-11-30T22:59:25.370Z,4.23
2023-11-30T23:01:55.167Z,4.16
2023-11-30T23:04:26.722Z,4.32
2023-11-30T23:06:54.573Z,4.35
2023-11-30T23:09:21.959Z,4.29
2023-11-30T23:11:49.226Z,4.01
2023-11-30T23:14:16.623Z,4.10
2023-11-30T23:16:44.759Z,4.14
2023-11-30T23:19:12.313Z,3.82
2023-11-30T23:21:40.702Z,3.83
2023-11-30T23:24:08.914Z,3.87
2023-11-30T23:26:37.641Z,4.10
2023-11-30T23:29:05.491Z,4.07
2023-11-30T23:31:34.438Z,3.96
2023-11-30T23:34:04.653Z,3.94
2023-11-30T23:36:32.322Z,3.85
2023-11-30T23:39:04.078Z,3.83
2023-11-30T23:41:32.803Z,3.89
2023-11-30T23:44:00.778Z,3.88
2023-11-30T23:46:30.425Z,3.84
2023-11-30T23:48:59.145Z,3.90
2023-11-30T23:51:26.462Z,3.83
2023-11-30T23:53:53.704Z,3.87
2023-11-30T23:56:20.845Z,3.94
2023-11-30T23:58:48.080Z,4.08
